createdAt,value
2017-07-01T00:01:11.233Z,999.39
2017-07-01T00:02:10.919Z,999.37
2017-07-01T00:03:10.894Z,999.34
2017-07-01T00:04:10.795Z,999.3
2017-07-01T00:05:10.833Z,999.31
2017-07-01T00:06:10.672Z,999.32
2017-07-01T00:07:10.609Z,999.32
2017-07-01T00:08:10.546Z,999.31
2017-07-01T00:09:10.485Z,999.34
2017-07-01T00:10:10.573Z,999.34
2017-07-01T00:11:10.361Z,999.33
2017-07-01T00:12:10.338Z,999.34
2017-07-01T00:13:10.237Z,999.37
2017-07-01T00:14:10.179Z,999.35
2017-07-01T00:15:10.262Z,999.35
2017-07-01T00:16:10.049Z,999.37
2017-07-01T00:17:09.989Z,999.37
2017-07-01T00:18:09.927Z,999.36
2017-07-01T00:19:09.873Z,999.34
2017-07-01T00:20:09.954Z,999.31
2017-07-01T00:21:09.741Z,999.32
2017-07-01T00:22:09.678Z,999.3
2017-07-01T00:23:09.616Z,999.33
2017-07-01T00:24:09.555Z,999.31
2017-07-01T00:25:09.743Z,999.32
2017-07-01T00:26:09.430Z,999.31
2017-07-01T00:27:09.519Z,999.31
2017-07-01T00:28:09.308Z,999.3
2017-07-01T00:29:09.245Z,999.28
2017-07-01T00:30:09.333Z,999.29
2017-07-01T00:31:09.121Z,999.27
2017-07-01T00:32:09.060Z,999.26
2017-07-01T00:33:08.996Z,999.25
2017-07-01T00:34:08.935Z,999.29
2017-07-01T00:35:09.172Z,999.28
2017-07-01T00:36:08.816Z,999.28
2017-07-01T00:37:08.749Z,999.26
2017-07-01T00:38:08.686Z,999.27
2017-07-01T00:39:08.625Z,999.26
2017-07-01T00:40:08.713Z,999.28
2017-07-01T00:41:08.500Z,999.25
2017-07-01T00:42:08.438Z,999.24
2017-07-01T00:43:08.377Z,999.27
2017-07-01T00:44:08.315Z,999.24
2017-07-01T00:45:08.502Z,999.27
2017-07-01T00:46:08.191Z,999.27
2017-07-01T00:47:08.130Z,999.26
2017-07-01T00:48:08.066Z,999.22
2017-07-01T00:49:08.005Z,999.26
2017-07-01T00:50:08.094Z,999.24
2017-07-01T00:51:07.882Z,999.24
2017-07-01T00:52:07.818Z,999.21
2017-07-01T00:53:07.761Z,999.24
2017-07-01T00:54:07.696Z,999.23
2017-07-01T00:55:07.932Z,999.19
2017-07-01T00:56:07.572Z,999.18
2017-07-01T00:57:07.509Z,999.2
2017-07-01T00:58:07.447Z,999.22
2017-07-01T00:59:07.386Z,999.24
2017-07-01T01:00:07.324Z,999.21
2017-07-01T01:01:07.261Z,999.21
2017-07-01T01:02:07.201Z,999.21
2017-07-01T01:03:07.138Z,999.23
2017-07-01T01:04:07.075Z,999.26
2017-07-01T01:05:07.115Z,999.25
2017-07-01T01:06:06.951Z,999.29
2017-07-01T01:07:06.889Z,999.29
2017-07-01T01:08:06.828Z,999.28
2017-07-01T01:09:06.766Z,999.32
2017-07-01T01:10:06.953Z,999.31
2017-07-01T01:11:06.641Z,999.28
2017-07-01T01:12:06.580Z,999.26
2017-07-01T01:13:06.518Z,999.23
2017-07-01T01:14:06.455Z,999.24
2017-07-01T01:15:06.394Z,999.26
2017-07-01T01:16:06.333Z,999.24
2017-07-01T01:17:06.269Z,999.19
2017-07-01T01:18:06.207Z,999.2
2017-07-01T01:19:06.145Z,999.19
2017-07-01T01:20:06.184Z,999.19
2017-07-01T01:21:06.021Z,999.18
2017-07-01T01:22:05.959Z,999.18
2017-07-01T01:23:05.897Z,999.17
2017-07-01T01:24:05.835Z,999.18
2017-07-01T01:25:06.024Z,999.15
2017-07-01T01:26:05.711Z,999.17
2017-07-01T01:27:05.650Z,999.16
2017-07-01T01:28:05.587Z,999.13
2017-07-01T01:29:05.525Z,999.13
2017-07-01T01:30:05.613Z,999.13
2017-07-01T01:31:05.401Z,999.17
2017-07-01T01:32:05.338Z,999.14
2017-07-01T01:33:05.277Z,999.1
2017-07-01T01:34:05.215Z,999.09
2017-07-01T01:35:05.404Z,999.12
2017-07-01T01:36:05.092Z,999.11
2017-07-01T01:37:05.031Z,999.14
2017-07-01T01:38:04.968Z,999.13
2017-07-01T01:39:04.906Z,999.12
2017-07-01T01:40:04.844Z,999.16
2017-07-01T01:41:04.782Z,999.14
2017-07-01T01:42:04.721Z,999.14
2017-07-01T01:43:04.658Z,999.14
2017-07-01T01:44:04.596Z,999.13
2017-07-01T01:45:04.686Z,999.16
2017-07-01T01:46:04.624Z,999.16
2017-07-01T01:47:04.411Z,999.2
2017-07-01T01:48:04.349Z,999.18
2017-07-01T01:49:04.286Z,999.22
2017-07-01T01:50:04.523Z,999.21
2017-07-01T01:51:04.312Z,999.21
2017-07-01T01:52:04.101Z,999.18
2017-07-01T01:53:04.039Z,999.18
2017-07-01T01:54:03.976Z,999.2
2017-07-01T01:55:04.214Z,999.18
2017-07-01T01:56:03.852Z,999.15
2017-07-01T01:57:03.790Z,999.15
2017-07-01T01:58:03.728Z,999.17
2017-07-01T01:59:03.666Z,999.17
2017-07-01T02:00:03.608Z,999.18
2017-07-01T02:01:03.743Z,999.17
2017-07-01T02:02:03.481Z,999.12
2017-07-01T02:03:03.418Z,999.11
2017-07-01T02:04:03.362Z,999.12
2017-07-01T02:05:03.294Z,999.15
2017-07-01T02:06:03.232Z,999.13
2017-07-01T02:07:03.170Z,999.14
2017-07-01T02:08:03.112Z,999.15
2017-07-01T02:09:03.047Z,999.13
2017-07-01T02:10:02.985Z,999.19
2017-07-01T02:11:02.923Z,999.17
2017-07-01T02:12:02.860Z,999.19
2017-07-01T02:13:02.799Z,999.16
2017-07-01T02:14:02.736Z,999.22
2017-07-01T02:15:02.675Z,999.19
2017-07-01T02:16:02.612Z,999.17
2017-07-01T02:17:02.550Z,999.17
2017-07-01T02:18:02.489Z,999.13
2017-07-01T02:19:02.426Z,999.15
2017-07-01T02:20:02.364Z,999.17
2017-07-01T02:21:02.303Z,999.17
2017-07-01T02:22:02.240Z,999.2
2017-07-01T02:23:02.178Z,999.2
2017-07-01T02:24:02.116Z,999.19
2017-07-01T02:25:02.055Z,999.2
2017-07-01T02:26:01.992Z,999.22
2017-07-01T02:27:01.931Z,999.22
2017-07-01T02:28:01.869Z,999.23
2017-07-01T02:29:01.807Z,999.21
2017-07-01T02:30:01.744Z,999.22
2017-07-01T02:31:01.682Z,999.25
2017-07-01T02:32:01.621Z,999.28
2017-07-01T02:33:01.558Z,999.26
2017-07-01T02:34:01.497Z,999.24
2017-07-01T02:35:01.434Z,999.21
2017-07-01T02:36:01.374Z,999.22
2017-07-01T02:37:01.348Z,999.22
2017-07-01T02:38:01.248Z,999.24
2017-07-01T02:39:01.190Z,999.24
2017-07-01T02:40:01.166Z,999.28
2017-07-01T02:41:01.063Z,999.26
2017-07-01T02:42:01.001Z,999.28
2017-07-01T02:43:00.940Z,999.33
2017-07-01T02:44:00.877Z,999.34
2017-07-01T02:45:00.817Z,999.27
2017-07-01T02:46:00.754Z,999.29
2017-07-01T02:47:00.691Z,999.25
2017-07-01T02:48:00.632Z,999.24
2017-07-01T02:49:00.567Z,999.24
2017-07-01T02:50:00.505Z,999.23
2017-07-01T02:51:00.445Z,999.23
2017-07-01T02:52:00.380Z,999.24
2017-07-01T02:53:00.318Z,999.23
2017-07-01T02:54:00.258Z,999.23
2017-07-01T02:55:00.195Z,999.2
2017-07-01T02:56:00.133Z,999.22
2017-07-01T02:57:00.071Z,999.19
2017-07-01T02:58:00.009Z,999.21
2017-07-01T02:58:59.947Z,999.18
2017-07-01T02:59:59.884Z,999.15
2017-07-01T03:00:59.822Z,999.11
2017-07-01T03:01:59.761Z,999.12
2017-07-01T03:02:59.698Z,999.13
2017-07-01T03:03:59.641Z,999.12
2017-07-01T03:04:59.575Z,999.11
2017-07-01T03:05:59.513Z,999.13
2017-07-01T03:06:59.450Z,999.09
2017-07-01T03:07:59.389Z,999.1
2017-07-01T03:08:59.327Z,999.11
2017-07-01T03:09:59.265Z,999.08
2017-07-01T03:10:59.205Z,999.13
2017-07-01T03:11:59.141Z,999.1
2017-07-01T03:12:59.080Z,999.09
2017-07-01T03:13:59.017Z,999.08
2017-07-01T03:14:58.956Z,999.09
2017-07-01T03:15:58.893Z,999.1
2017-07-01T03:16:58.832Z,999.08
2017-07-01T03:17:58.769Z,999.1
2017-07-01T03:18:58.708Z,999.07
2017-07-01T03:19:58.646Z,999.1
2017-07-01T03:20:58.583Z,999.03
2017-07-01T03:21:58.522Z,999.1
2017-07-01T03:22:58.460Z,999.11
2017-07-01T03:23:58.398Z,999.09
2017-07-01T03:24:58.336Z,999.08
2017-07-01T03:25:58.274Z,999.09
2017-07-01T03:26:58.212Z,999.08
2017-07-01T03:27:58.150Z,999.08
2017-07-01T03:28:58.087Z,999.07
2017-07-01T03:29:58.026Z,999.05
2017-07-01T03:30:57.964Z,999.07
2017-07-01T03:31:57.901Z,999.09
2017-07-01T03:32:57.839Z,999.05
2017-07-01T03:33:57.777Z,999.06
2017-07-01T03:34:57.716Z,999.06
2017-07-01T03:35:57.903Z,999.01
2017-07-01T03:36:57.592Z,998.99
2017-07-01T03:37:57.531Z,998.96
2017-07-01T03:38:57.470Z,999.02
2017-07-01T03:39:57.406Z,999.02
2017-07-01T03:40:57.343Z,999.01
2017-07-01T03:41:57.282Z,999.02
2017-07-01T03:42:57.219Z,999.04
2017-07-01T03:43:57.158Z,999.02
2017-07-01T03:44:57.095Z,999.03
2017-07-01T03:45:57.034Z,999.02
2017-07-01T03:46:56.971Z,999.05
2017-07-01T03:47:56.909Z,999.07
2017-07-01T03:48:56.848Z,999.06
2017-07-01T03:49:56.786Z,999.09
2017-07-01T03:50:56.732Z,999.05
2017-07-01T03:51:56.666Z,999.07
2017-07-01T03:52:56.600Z,999.1
2017-07-01T03:53:56.537Z,999.02
2017-07-01T03:54:56.476Z,999.06
2017-07-01T03:55:56.415Z,999.05
2017-07-01T03:56:56.353Z,999.07
2017-07-01T03:57:56.289Z,999.08
2017-07-01T03:58:56.261Z,999.05
2017-07-01T03:59:56.168Z,999.06
2017-07-01T04:00:56.103Z,999.04
2017-07-01T04:01:56.042Z,999.1
2017-07-01T04:02:55.979Z,999.11
2017-07-01T04:03:55.917Z,999.06
2017-07-01T04:04:55.854Z,999.07
2017-07-01T04:05:55.793Z,999.07
2017-07-01T04:06:55.731Z,999.06
2017-07-01T04:07:55.669Z,999.04
2017-07-01T04:08:55.606Z,999.04
2017-07-01T04:09:55.545Z,999.05
2017-07-01T04:10:55.484Z,999.03
2017-07-01T04:11:55.421Z,999.08
2017-07-01T04:12:55.358Z,999.05
2017-07-01T04:13:55.297Z,999.04
2017-07-01T04:14:55.235Z,999.09
2017-07-01T04:15:55.173Z,999.1
2017-07-01T04:16:55.110Z,999.07
2017-07-01T04:17:55.049Z,999.08
2017-07-01T04:18:54.987Z,999.07
2017-07-01T04:19:54.924Z,999.05
2017-07-01T04:20:54.863Z,999.07
2017-07-01T04:21:54.803Z,999.06
2017-07-01T04:22:54.739Z,999.03
2017-07-01T04:23:54.677Z,999.06
2017-07-01T04:24:54.616Z,999.08
2017-07-01T04:25:54.553Z,999.04
2017-07-01T04:26:54.491Z,999.06
2017-07-01T04:27:54.430Z,998.99
2017-07-01T04:28:54.377Z,999.03
2017-07-01T04:29:54.304Z,999.02
2017-07-01T04:30:54.243Z,999.04
2017-07-01T04:31:54.181Z,999.06
2017-07-01T04:32:54.118Z,999.07
2017-07-01T04:33:54.058Z,999.05
2017-07-01T04:34:53.995Z,999.05
2017-07-01T04:35:53.932Z,999.06
2017-07-01T04:36:53.871Z,999.07
2017-07-01T04:37:53.808Z,999.02
2017-07-01T04:38:53.746Z,999.06
2017-07-01T04:39:53.684Z,999.07
2017-07-01T04:40:53.622Z,999.04
2017-07-01T04:41:53.560Z,999.06
2017-07-01T04:42:53.498Z,999.04
2017-07-01T04:43:53.437Z,999.07
2017-07-01T04:44:53.375Z,999.06
2017-07-01T04:45:53.312Z,999.08
2017-07-01T04:46:53.251Z,999.06
2017-07-01T04:47:53.189Z,999.1
2017-07-01T04:48:53.128Z,999.09
2017-07-01T04:49:53.064Z,999.05
2017-07-01T04:50:53.003Z,999.05
2017-07-01T04:51:52.941Z,999.07
2017-07-01T04:52:52.878Z,999.08
2017-07-01T04:53:52.817Z,999.11
2017-07-01T04:54:52.755Z,999.11
2017-07-01T04:55:52.692Z,999.1
2017-07-01T04:56:52.631Z,999.12
2017-07-01T04:57:52.569Z,999.12
2017-07-01T04:58:52.507Z,999.14
2017-07-01T04:59:52.443Z,999.12
2017-07-01T05:00:52.382Z,999.14
2017-07-01T05:01:52.320Z,999.15
2017-07-01T05:02:52.259Z,999.14
2017-07-01T05:03:52.196Z,999.17
2017-07-01T05:04:52.135Z,999.19
2017-07-01T05:05:52.072Z,999.19
2017-07-01T05:06:52.010Z,999.2
2017-07-01T05:07:51.948Z,999.2
2017-07-01T05:08:51.886Z,999.24
2017-07-01T05:09:51.825Z,999.28
2017-07-01T05:10:51.762Z,999.28
2017-07-01T05:11:51.699Z,999.28
2017-07-01T05:12:51.638Z,999.3
2017-07-01T05:13:51.576Z,999.31
2017-07-01T05:14:51.514Z,999.34
2017-07-01T05:15:51.451Z,999.33
2017-07-01T05:16:51.391Z,999.38
2017-07-01T05:17:51.327Z,999.35
2017-07-01T05:18:51.266Z,999.34
2017-07-01T05:19:51.204Z,999.35
2017-07-01T05:20:51.142Z,999.37
2017-07-01T05:21:51.079Z,999.39
2017-07-01T05:22:51.018Z,999.39
2017-07-01T05:23:50.955Z,999.43
2017-07-01T05:24:50.894Z,999.38
2017-07-01T05:25:50.831Z,999.42
2017-07-01T05:26:50.770Z,999.38
2017-07-01T05:27:50.707Z,999.32
2017-07-01T05:28:50.645Z,999.32
2017-07-01T05:29:50.583Z,999.31
2017-07-01T05:30:50.522Z,999.39
2017-07-01T05:31:50.462Z,999.36
2017-07-01T05:32:50.396Z,999.37
2017-07-01T05:33:50.336Z,999.36
2017-07-01T05:34:50.273Z,999.36
2017-07-01T05:35:50.213Z,999.36
2017-07-01T05:36:50.149Z,999.36
2017-07-01T05:37:50.087Z,999.36
2017-07-01T05:38:50.025Z,999.32
2017-07-01T05:39:49.962Z,999.36
2017-07-01T05:40:49.902Z,999.43
2017-07-01T05:41:49.839Z,999.47
2017-07-01T05:42:49.778Z,999.49
2017-07-01T05:43:49.714Z,999.51
2017-07-01T05:44:49.652Z,999.55
2017-07-01T05:45:49.592Z,999.49
2017-07-01T05:46:49.528Z,999.5
2017-07-01T05:47:49.466Z,999.52
2017-07-01T05:48:49.404Z,999.53
2017-07-01T05:49:49.343Z,999.5
2017-07-01T05:50:49.280Z,999.49
2017-07-01T05:51:49.218Z,999.49
2017-07-01T05:52:49.166Z,999.47
2017-07-01T05:53:49.094Z,999.43
2017-07-01T05:54:49.031Z,999.42
2017-07-01T05:55:48.970Z,999.38
2017-07-01T05:56:48.908Z,999.34
2017-07-01T05:57:48.848Z,999.33
2017-07-01T05:58:48.783Z,999.32
2017-07-01T05:59:48.721Z,999.37
2017-07-01T06:00:48.659Z,999.4
2017-07-01T06:01:48.600Z,999.37
2017-07-01T06:02:48.536Z,999.4
2017-07-01T06:03:48.474Z,999.33
2017-07-01T06:04:48.414Z,999.38
2017-07-01T06:05:48.386Z,999.36
2017-07-01T06:06:48.291Z,999.37
2017-07-01T06:07:48.226Z,999.4
2017-07-01T06:08:48.164Z,999.38
2017-07-01T06:09:48.102Z,999.43
2017-07-01T06:10:48.040Z,999.39
2017-07-01T06:11:47.977Z,999.41
2017-07-01T06:12:47.950Z,999.38
2017-07-01T06:13:47.853Z,999.39
2017-07-01T06:14:47.791Z,999.43
2017-07-01T06:15:47.729Z,999.4
2017-07-01T06:16:47.666Z,999.41
2017-07-01T06:17:47.605Z,999.48
2017-07-01T06:18:47.542Z,999.47
2017-07-01T06:19:47.481Z,999.5
2017-07-01T06:20:47.419Z,999.51
2017-07-01T06:21:47.358Z,999.5
2017-07-01T06:22:47.297Z,999.51
2017-07-01T06:23:47.234Z,999.52
2017-07-01T06:24:47.174Z,999.52
2017-07-01T06:25:47.361Z,999.58
2017-07-01T06:26:47.049Z,999.58
2017-07-01T06:27:46.985Z,999.61
2017-07-01T06:28:46.923Z,999.61
2017-07-01T06:29:46.862Z,999.57
2017-07-01T06:30:46.799Z,999.54
2017-07-01T06:31:46.737Z,999.58
2017-07-01T06:32:46.676Z,999.56
2017-07-01T06:33:46.613Z,999.57
2017-07-01T06:34:46.550Z,999.58
2017-07-01T06:35:46.490Z,999.56
2017-07-01T06:36:46.428Z,999.57
2017-07-01T06:37:46.365Z,999.58
2017-07-01T06:38:46.303Z,999.58
2017-07-01T06:39:46.241Z,999.57
2017-07-01T06:40:46.179Z,999.59
2017-07-01T06:41:46.117Z,999.55
2017-07-01T06:42:46.055Z,999.56
2017-07-01T06:43:45.995Z,999.6
2017-07-01T06:44:45.932Z,999.63
2017-07-01T06:45:45.869Z,999.59
2017-07-01T06:46:45.806Z,999.55
2017-07-01T06:47:45.744Z,999.58
2017-07-01T06:48:45.684Z,999.57
2017-07-01T06:49:45.620Z,999.55
2017-07-01T06:50:45.558Z,999.54
2017-07-01T06:51:45.497Z,999.51
2017-07-01T06:52:45.434Z,999.57
2017-07-01T06:53:45.372Z,999.55
2017-07-01T06:54:45.309Z,999.58
2017-07-01T06:55:45.249Z,999.57
2017-07-01T06:56:45.185Z,999.56
2017-07-01T06:57:45.124Z,999.57
2017-07-01T06:58:45.062Z,999.54
2017-07-01T06:59:45.000Z,999.53
2017-07-01T07:00:44.938Z,999.53
2017-07-01T07:01:44.876Z,999.5
2017-07-01T07:02:44.815Z,999.49
2017-07-01T07:03:44.751Z,999.49
2017-07-01T07:04:44.690Z,999.55
2017-07-01T07:05:44.627Z,999.55
2017-07-01T07:06:44.567Z,999.58
2017-07-01T07:07:44.504Z,999.58
2017-07-01T07:08:44.441Z,999.55
2017-07-01T07:09:44.381Z,999.6
2017-07-01T07:10:44.318Z,999.56
2017-07-01T07:11:44.256Z,999.58
2017-07-01T07:12:44.193Z,999.6
2017-07-01T07:13:44.131Z,999.62
2017-07-01T07:14:44.069Z,999.6
2017-07-01T07:15:44.008Z,999.62
2017-07-01T07:16:43.948Z,999.67
2017-07-01T07:17:43.884Z,999.68
2017-07-01T07:18:43.821Z,999.65
2017-07-01T07:19:43.759Z,999.62
2017-07-01T07:20:43.698Z,999.66
2017-07-01T07:21:43.637Z,999.7
2017-07-01T07:22:43.576Z,999.67
2017-07-01T07:23:43.511Z,999.71
2017-07-01T07:24:43.450Z,999.69
2017-07-01T07:25:43.387Z,999.7
2017-07-01T07:26:43.426Z,999.71
2017-07-01T07:27:43.264Z,999.67
2017-07-01T07:28:43.202Z,999.73
2017-07-01T07:29:43.146Z,999.66
2017-07-01T07:30:43.327Z,999.7
2017-07-01T07:31:43.018Z,999.72
2017-07-01T07:32:42.954Z,999.7
2017-07-01T07:33:42.892Z,999.68
2017-07-01T07:34:42.830Z,999.77
2017-07-01T07:35:42.769Z,999.72
2017-07-01T07:36:42.705Z,999.73
2017-07-01T07:37:42.642Z,999.72
2017-07-01T07:38:42.583Z,999.75
2017-07-01T07:39:42.519Z,999.72
2017-07-01T07:40:42.806Z,999.73
2017-07-01T07:41:42.395Z,999.72
2017-07-01T07:42:42.333Z,999.73
2017-07-01T07:43:42.272Z,999.82
2017-07-01T07:44:42.209Z,999.76
2017-07-01T07:45:42.147Z,999.76
2017-07-01T07:46:42.085Z,999.79
2017-07-01T07:47:42.023Z,999.76
2017-07-01T07:48:41.960Z,999.74
2017-07-01T07:49:41.898Z,999.79
2017-07-01T07:50:41.837Z,999.76
2017-07-01T07:51:41.773Z,999.82
2017-07-01T07:52:41.712Z,999.78
2017-07-01T07:53:41.650Z,999.8
2017-07-01T07:54:41.593Z,999.86
2017-07-01T07:55:41.526Z,999.79
2017-07-01T07:56:41.465Z,999.78
2017-07-01T07:57:41.403Z,999.81
2017-07-01T07:58:41.340Z,999.78
2017-07-01T07:59:41.279Z,999.8
2017-07-01T08:00:41.467Z,999.84
2017-07-01T08:01:41.156Z,999.85
2017-07-01T08:02:41.093Z,999.86
2017-07-01T08:03:41.032Z,999.88
2017-07-01T08:04:40.969Z,999.87
2017-07-01T08:05:40.907Z,999.88
2017-07-01T08:06:40.844Z,999.92
2017-07-01T08:07:40.784Z,999.9
2017-07-01T08:08:40.722Z,999.88
2017-07-01T08:09:40.658Z,999.86
2017-07-01T08:10:40.697Z,999.9
2017-07-01T08:11:40.535Z,999.94
2017-07-01T08:12:40.473Z,999.95
2017-07-01T08:13:40.410Z,999.92
2017-07-01T08:14:40.349Z,999.96
2017-07-01T08:15:40.537Z,999.89
2017-07-01T08:16:40.224Z,999.91
2017-07-01T08:17:40.162Z,999.94
2017-07-01T08:18:40.101Z,999.95
2017-07-01T08:19:40.039Z,999.93
2017-07-01T08:20:40.226Z,999.87
2017-07-01T08:21:39.951Z,999.92
2017-07-01T08:22:39.853Z,999.92
2017-07-01T08:23:39.801Z,999.91
2017-07-01T08:24:39.728Z,999.92
2017-07-01T08:25:39.817Z,999.92
2017-07-01T08:26:39.605Z,999.96
2017-07-01T08:27:39.543Z,999.98
2017-07-01T08:28:39.683Z,999.99
2017-07-01T08:29:39.419Z,999.95
2017-07-01T08:30:39.458Z,1000
2017-07-01T08:31:39.294Z,1000
2017-07-01T08:32:39.233Z,999.99
2017-07-01T08:33:39.171Z,999.98
2017-07-01T08:34:39.110Z,1000.01
2017-07-01T08:35:39.397Z,1000.02
2017-07-01T08:36:38.985Z,1000.01
2017-07-01T08:37:38.924Z,999.96
2017-07-01T08:38:38.862Z,999.92
2017-07-01T08:39:38.799Z,999.93
2017-07-01T08:40:38.987Z,999.96
2017-07-01T08:41:38.926Z,999.91
2017-07-01T08:42:38.612Z,999.93
2017-07-01T08:43:38.551Z,999.95
2017-07-01T08:44:38.490Z,999.93
2017-07-01T08:45:38.678Z,999.93
2017-07-01T08:46:38.615Z,999.92
2017-07-01T08:47:38.303Z,999.89
2017-07-01T08:48:38.241Z,999.95
2017-07-01T08:49:38.179Z,999.91
2017-07-01T08:50:38.369Z,999.92
2017-07-01T08:51:38.055Z,999.94
2017-07-01T08:52:37.993Z,999.89
2017-07-01T08:53:37.931Z,999.9
2017-07-01T08:54:37.870Z,999.85
2017-07-01T08:55:38.058Z,999.84
2017-07-01T08:56:37.749Z,999.86
2017-07-01T08:57:37.683Z,999.87
2017-07-01T08:58:37.621Z,999.86
2017-07-01T08:59:37.560Z,999.82
2017-07-01T09:00:37.847Z,999.83
2017-07-01T09:01:37.439Z,999.83
2017-07-01T09:02:37.378Z,999.82
2017-07-01T09:03:37.315Z,999.78
2017-07-01T09:04:37.250Z,999.76
2017-07-01T09:05:37.440Z,999.8
2017-07-01T09:06:37.129Z,999.77
2017-07-01T09:07:37.067Z,999.78
2017-07-01T09:08:37.001Z,999.75
2017-07-01T09:09:36.940Z,999.76
2017-07-01T09:10:37.383Z,999.75
2017-07-01T09:11:36.816Z,999.76
2017-07-01T09:12:36.759Z,999.81
2017-07-01T09:13:36.692Z,999.78
2017-07-01T09:14:36.633Z,999.71
2017-07-01T09:15:36.671Z,999.73
2017-07-01T09:16:36.510Z,999.72
2017-07-01T09:17:36.445Z,999.74
2017-07-01T09:18:36.384Z,999.74
2017-07-01T09:19:36.321Z,999.75
2017-07-01T09:20:36.261Z,999.66
2017-07-01T09:21:36.198Z,999.74
2017-07-01T09:22:36.136Z,999.69
2017-07-01T09:23:36.073Z,999.72
2017-07-01T09:24:36.012Z,999.73
2017-07-01T09:25:36.049Z,999.72
2017-07-01T09:26:35.887Z,999.71
2017-07-01T09:27:35.828Z,999.7
2017-07-01T09:28:35.764Z,999.67
2017-07-01T09:29:35.706Z,999.72
2017-07-01T09:30:35.742Z,999.68
2017-07-01T09:31:35.579Z,999.71
2017-07-01T09:32:35.517Z,999.71
2017-07-01T09:33:35.459Z,999.71
2017-07-01T09:34:35.394Z,999.74
2017-07-01T09:35:35.484Z,999.69
2017-07-01T09:36:35.271Z,999.65
2017-07-01T09:37:35.207Z,999.65
2017-07-01T09:38:35.156Z,999.63
2017-07-01T09:39:35.084Z,999.74
2017-07-01T09:40:35.171Z,999.77
2017-07-01T09:41:34.960Z,999.74
2017-07-01T09:42:34.897Z,999.75
2017-07-01T09:43:34.836Z,999.73
2017-07-01T09:44:34.773Z,999.69
2017-07-01T09:45:35.012Z,999.81
2017-07-01T09:46:34.649Z,999.8
2017-07-01T09:47:34.591Z,999.75
2017-07-01T09:48:34.526Z,999.75
2017-07-01T09:49:34.507Z,999.69
2017-07-01T09:50:34.402Z,999.71
2017-07-01T09:51:34.339Z,999.69
2017-07-01T09:52:34.278Z,999.7
2017-07-01T09:53:34.216Z,999.62
2017-07-01T09:54:34.358Z,999.68
2017-07-01T09:55:34.092Z,999.73
2017-07-01T09:56:34.030Z,999.77
2017-07-01T09:57:33.969Z,999.74
2017-07-01T09:58:33.907Z,999.72
2017-07-01T09:59:33.846Z,999.74
2017-07-01T10:00:34.034Z,999.7
2017-07-01T10:01:33.720Z,999.75
2017-07-01T10:02:33.658Z,999.73
2017-07-01T10:03:33.597Z,999.71
2017-07-01T10:04:33.536Z,999.75
2017-07-01T10:05:33.624Z,999.73
2017-07-01T10:06:33.411Z,999.73
2017-07-01T10:07:33.349Z,999.73
2017-07-01T10:08:33.288Z,999.75
2017-07-01T10:09:33.228Z,999.76
2017-07-01T10:10:33.313Z,999.84
2017-07-01T10:11:33.103Z,999.74
2017-07-01T10:12:33.043Z,999.77
2017-07-01T10:13:32.981Z,999.81
2017-07-01T10:14:32.917Z,999.74
2017-07-01T10:15:33.106Z,999.84
2017-07-01T10:16:32.793Z,999.85
2017-07-01T10:17:32.729Z,999.94
2017-07-01T10:18:32.670Z,1000.05
2017-07-01T10:19:32.608Z,1000.17
2017-07-01T10:20:32.645Z,1000.27
2017-07-01T10:21:32.633Z,1000.28
2017-07-01T10:22:32.421Z,1000.31
2017-07-01T10:23:32.360Z,1000.28
2017-07-01T10:24:32.297Z,1000.24
2017-07-01T10:25:32.386Z,1000.23
2017-07-01T10:26:32.274Z,1000.23
2017-07-01T10:27:32.112Z,1000.29
2017-07-01T10:28:32.049Z,1000.29
2017-07-01T10:29:31.988Z,1000.27
2017-07-01T10:30:32.176Z,1000.29
2017-07-01T10:31:31.865Z,1000.28
2017-07-01T10:32:31.803Z,1000.31
2017-07-01T10:33:31.741Z,1000.35
2017-07-01T10:34:31.679Z,1000.36
2017-07-01T10:35:31.867Z,1000.35
2017-07-01T10:36:31.555Z,1000.37
2017-07-01T10:37:31.493Z,1000.37
2017-07-01T10:38:31.432Z,1000.43
2017-07-01T10:39:31.368Z,1000.43
2017-07-01T10:40:31.557Z,1000.42
2017-07-01T10:41:31.246Z,1000.48
2017-07-01T10:42:31.184Z,1000.45
2017-07-01T10:43:31.122Z,1000.48
2017-07-01T10:44:31.060Z,1000.45
2017-07-01T10:45:31.149Z,1000.48
2017-07-01T10:46:30.935Z,1000.53
2017-07-01T10:47:30.875Z,1000.42
2017-07-01T10:48:30.813Z,1000.4
2017-07-01T10:49:30.751Z,1000.44
2017-07-01T10:50:30.838Z,1000.52
2017-07-01T10:51:30.626Z,1000.44
2017-07-01T10:52:30.567Z,1000.5
2017-07-01T10:53:30.504Z,1000.46
2017-07-01T10:54:30.441Z,1000.49
2017-07-01T10:55:30.530Z,1000.52
2017-07-01T10:56:30.319Z,1000.49
2017-07-01T10:57:30.257Z,1000.47
2017-07-01T10:58:30.193Z,1000.45
2017-07-01T10:59:30.133Z,1000.47
2017-07-01T11:00:30.170Z,1000.48
2017-07-01T11:01:30.008Z,1000.46
2017-07-01T11:02:29.946Z,1000.47
2017-07-01T11:03:29.884Z,1000.5
2017-07-01T11:04:29.823Z,1000.51
2017-07-01T11:05:29.761Z,1000.47
2017-07-01T11:06:29.705Z,1000.46
2017-07-01T11:07:29.638Z,1000.48
2017-07-01T11:08:29.576Z,1000.5
2017-07-01T11:09:29.513Z,1000.49
2017-07-01T11:10:29.706Z,1000.46
2017-07-01T11:11:29.391Z,1000.55
2017-07-01T11:12:29.330Z,1000.55
2017-07-01T11:13:29.266Z,1000.5
2017-07-01T11:14:29.205Z,1000.55
2017-07-01T11:15:29.393Z,1000.52
2017-07-01T11:16:29.082Z,1000.52
2017-07-01T11:17:29.019Z,1000.53
2017-07-01T11:18:28.958Z,1000.48
2017-07-01T11:19:28.894Z,1000.47
2017-07-01T11:20:28.984Z,1000.51
2017-07-01T11:21:28.774Z,1000.49
2017-07-01T11:22:28.711Z,1000.46
2017-07-01T11:23:28.648Z,1000.38
2017-07-01T11:24:28.586Z,1000.45
2017-07-01T11:25:28.825Z,1000.41
2017-07-01T11:26:28.462Z,1000.44
2017-07-01T11:27:28.401Z,1000.42
2017-07-01T11:28:28.339Z,1000.42
2017-07-01T11:29:28.279Z,1000.44
2017-07-01T11:30:28.215Z,1000.39
2017-07-01T11:31:28.156Z,1000.42
2017-07-01T11:32:28.093Z,1000.42
2017-07-01T11:33:28.031Z,1000.39
2017-07-01T11:34:27.968Z,1000.43
2017-07-01T11:35:28.155Z,1000.38
2017-07-01T11:36:27.845Z,1000.39
2017-07-01T11:37:27.782Z,1000.41
2017-07-01T11:38:27.725Z,1000.37
2017-07-01T11:39:27.659Z,1000.36
2017-07-01T11:40:27.748Z,1000.41
2017-07-01T11:41:27.535Z,1000.35
2017-07-01T11:42:27.474Z,1000.4
2017-07-01T11:43:27.412Z,1000.35
2017-07-01T11:44:27.350Z,1000.37
2017-07-01T11:45:27.437Z,1000.41
2017-07-01T11:46:27.226Z,1000.39
2017-07-01T11:47:27.164Z,1000.35
2017-07-01T11:48:27.103Z,1000.37
2017-07-01T11:49:27.042Z,1000.42
2017-07-01T11:50:26.978Z,1000.36
2017-07-01T11:51:26.917Z,1000.34
2017-07-01T11:52:26.854Z,1000.36
2017-07-01T11:53:26.794Z,1000.34
2017-07-01T11:54:26.731Z,1000.39
2017-07-01T11:55:26.670Z,1000.41
2017-07-01T11:56:26.607Z,1000.41
2017-07-01T11:57:26.546Z,1000.35
2017-07-01T11:58:26.486Z,1000.35
2017-07-01T11:59:26.421Z,1000.39
2017-07-01T12:00:26.711Z,1000.28
2017-07-01T12:01:26.308Z,1000.33
2017-07-01T12:02:26.236Z,1000.38
2017-07-01T12:03:26.174Z,1000.29
2017-07-01T12:04:26.116Z,1000.38
2017-07-01T12:05:26.157Z,1000.33
2017-07-01T12:06:25.990Z,1000.38
2017-07-01T12:07:25.929Z,1000.46
2017-07-01T12:08:25.866Z,1000.41
2017-07-01T12:09:25.805Z,1000.36
2017-07-01T12:10:25.991Z,1000.42
2017-07-01T12:11:25.679Z,1000.39
2017-07-01T12:12:25.618Z,1000.44
2017-07-01T12:13:25.557Z,1000.35
2017-07-01T12:14:25.495Z,1000.44
2017-07-01T12:15:25.583Z,1000.46
2017-07-01T12:16:25.373Z,1000.43
2017-07-01T12:17:25.310Z,1000.4
2017-07-01T12:18:25.247Z,1000.4
2017-07-01T12:19:25.186Z,1000.43
2017-07-01T12:20:25.374Z,1000.45
2017-07-01T12:21:25.067Z,1000.39
2017-07-01T12:22:25.001Z,1000.47
2017-07-01T12:23:24.938Z,1000.45
2017-07-01T12:24:24.877Z,1000.49
2017-07-01T12:26:24.753Z,1000.61
2017-07-01T12:27:24.691Z,1000.62